Terminal Aerodrome Forecast
Issued by NWS New Orleans/Baton Rouge, LA

Home | Current Version | Previous Version | Text Only | Print | Product List | Glossary On
Versions: 1 2 3 4 5 6 7 8 9 10 11 12 13 14 15 16 17 18 19 20
000
FTUS44 KLIX 021846 AAA
TAFNEW
TAF AMD
KNEW 021846Z 0219/0318 06008KT P6SM SCT020 BKN150
     FM022100 19007KT 6SM -RA VCTS BKN040CB OVC130
     FM030300 22007KT P6SM VCSH SCT008 BKN040 OVC150
     FM030900 35011KT P6SM SCT015 BKN050=

USA.gov is the U.S. government's official web portal to all federal, state and local government web resources and services.